sensor_id;sensor_type;location;lat;lon;timestamp;noise_LAeq;noise_LA_min;noise_LA_max;noise_LA01;noise_LA95
74234;Laerm;62591;55.764;37.718;2023-10-19T00:01:59;42.94;37.51;58.55;;
74234;Laerm;62591;55.764;37.718;2023-10-19T00:04:29;43.34;38.42;56.98;;
74234;Laerm;62591;55.764;37.718;2023-10-19T00:07:02;43.26;38.04;58.46;;
74234;Laerm;62591;55.764;37.718;2023-10-19T00:09:31;45.38;38.60;58.96;;
74234;Laerm;62591;55.764;37.718;2023-10-19T00:12:04;45.47;39.65;59.39;;
74234;Laerm;62591;55.764;37.718;2023-10-19T00:14:35;47.04;41.53;59.92;;
74234;Laerm;62591;55.764;37.718;2023-10-19T00:17:05;46.60;40.68;59.66;;
74234;Laerm;62591;55.764;37.718;2023-10-19T00:19:38;45.45;39.74;58.54;;
74234;Laerm;62591;55.764;37.718;2023-10-19T00:22:24;44.79;39.35;58.85;;
74234;Laerm;62591;55.764;37.718;2023-10-19T00:24:52;44.42;39.22;59.77;;
74234;Laerm;62591;55.764;37.718;2023-10-19T00:27:21;44.19;39.76;56.66;;
74234;Laerm;62591;55.764;37.718;2023-10-19T00:29:50;43.25;37.38;60.26;;
74234;Laerm;62591;55.764;37.718;2023-10-19T00:32:24;43.09;37.27;58.48;;
74234;Laerm;62591;55.764;37.718;2023-10-19T00:34:58;42.55;37.12;56.57;;
74234;Laerm;62591;55.764;37.718;2023-10-19T00:37:35;43.30;36.69;58.78;;
74234;Laerm;62591;55.764;37.718;2023-10-19T00:40:11;42.34;35.39;59.29;;
74234;Laerm;62591;55.764;37.718;2023-10-19T00:42:47;41.83;35.65;57.58;;
74234;Laerm;62591;55.764;37.718;2023-10-19T00:45:21;39.78;34.94;58.59;;
74234;Laerm;62591;55.764;37.718;2023-10-19T00:47:57;41.98;35.36;59.22;;
74234;Laerm;62591;55.764;37.718;2023-10-19T00:50:27;41.79;35.17;56.82;;
74234;Laerm;62591;55.764;37.718;2023-10-19T00:52:58;39.72;34.92;58.29;;
74234;Laerm;62591;55.764;37.718;2023-10-19T00:55:27;40.07;33.89;54.87;;
74234;Laerm;62591;55.764;37.718;2023-10-19T00:57:57;41.10;34.06;58.38;;
74234;Laerm;62591;55.764;37.718;2023-10-19T01:00:25;40.13;34.97;60.29;;
74234;Laerm;62591;55.764;37.718;2023-10-19T01:03:04;40.05;34.81;57.62;;
74234;Laerm;62591;55.764;37.718;2023-10-19T01:05:36;41.33;34.45;61.10;;
74234;Laerm;62591;55.764;37.718;2023-10-19T01:08:06;39.36;34.22;55.57;;
74234;Laerm;62591;55.764;37.718;2023-10-19T01:10:47;40.09;34.00;59.99;;
74234;Laerm;62591;55.764;37.718;2023-10-19T01:13:19;42.73;34.68;60.05;;
74234;Laerm;62591;55.764;37.718;2023-10-19T01:15:55;41.79;34.37;57.72;;
74234;Laerm;62591;55.764;37.718;2023-10-19T01:18:27;44.89;34.50;59.17;;
74234;Laerm;62591;55.764;37.718;2023-10-19T01:21:01;43.08;34.48;59.85;;
74234;Laerm;62591;55.764;37.718;2023-10-19T01:23:35;38.17;34.21;58.83;;
74234;Laerm;62591;55.764;37.718;2023-10-19T01:26:05;39.97;34.46;58.51;;
74234;Laerm;62591;55.764;37.718;2023-10-19T01:28:37;42.14;34.20;56.91;;
74234;Laerm;62591;55.764;37.718;2023-10-19T01:31:17;39.20;34.10;58.02;;
74234;Laerm;62591;55.764;37.718;2023-10-19T01:33:50;40.67;33.72;58.29;;
74234;Laerm;62591;55.764;37.718;2023-10-19T01:36:24;42.87;33.53;61.08;;
74234;Laerm;62591;55.764;37.718;2023-10-19T01:38:56;41.37;34.42;54.55;;
74234;Laerm;62591;55.764;37.718;2023-10-19T01:41:29;44.06;34.63;59.66;;
74234;Laerm;62591;55.764;37.718;2023-10-19T01:43:59;41.15;35.81;59.79;;
74234;Laerm;62591;55.764;37.718;2023-10-19T01:46:34;44.79;36.00;58.69;;
74234;Laerm;62591;55.764;37.718;2023-10-19T01:49:04;44.01;35.14;58.66;;
74234;Laerm;62591;55.764;37.718;2023-10-19T01:51:36;38.66;34.78;53.32;;
74234;Laerm;62591;55.764;37.718;2023-10-19T01:54:08;40.22;35.22;58.71;;
74234;Laerm;62591;55.764;37.718;2023-10-19T01:56:37;43.53;35.16;58.73;;
74234;Laerm;62591;55.764;37.718;2023-10-19T01:59:06;42.07;35.47;56.16;;
74234;Laerm;62591;55.764;37.718;2023-10-19T02:01:38;45.35;35.32;57.60;;
74234;Laerm;62591;55.764;37.718;2023-10-19T02:04:09;41.40;35.38;58.22;;
74234;Laerm;62591;55.764;37.718;2023-10-19T02:06:41;41.83;34.67;52.97;;
74234;Laerm;62591;55.764;37.718;2023-10-19T02:09:12;46.97;35.57;57.76;;
74234;Laerm;62591;55.764;37.718;2023-10-19T02:11:53;43.50;35.94;58.97;;
74234;Laerm;62591;55.764;37.718;2023-10-19T02:14:27;41.04;34.71;57.40;;
74234;Laerm;62591;55.764;37.718;2023-10-19T02:16:59;43.09;34.08;55.75;;
74234;Laerm;62591;55.764;37.718;2023-10-19T02:19:28;40.03;34.66;55.60;;
74234;Laerm;62591;55.764;37.718;2023-10-19T02:22:03;39.66;34.24;58.65;;
74234;Laerm;62591;55.764;37.718;2023-10-19T02:24:32;44.10;34.81;53.82;;
74234;Laerm;62591;55.764;37.718;2023-10-19T02:27:01;39.97;34.26;55.70;;
74234;Laerm;62591;55.764;37.718;2023-10-19T02:29:29;44.57;35.11;56.35;;
74234;Laerm;62591;55.764;37.718;2023-10-19T02:31:58;45.07;34.62;57.24;;
74234;Laerm;62591;55.764;37.718;2023-10-19T02:34:31;44.43;34.90;56.47;;
74234;Laerm;62591;55.764;37.718;2023-10-19T02:37:02;44.64;35.29;54.88;;
74234;Laerm;62591;55.764;37.718;2023-10-19T02:39:33;40.26;34.85;53.39;;
74234;Laerm;62591;55.764;37.718;2023-10-19T02:42:01;42.05;34.79;58.40;;
74234;Laerm;62591;55.764;37.718;2023-10-19T02:44:30;42.99;35.59;57.62;;
74234;Laerm;62591;55.764;37.718;2023-10-19T02:46:59;45.39;35.94;54.89;;
74234;Laerm;62591;55.764;37.718;2023-10-19T02:49:33;43.17;36.13;55.55;;
74234;Laerm;62591;55.764;37.718;2023-10-19T02:52:05;45.33;36.84;55.84;;
74234;Laerm;62591;55.764;37.718;2023-10-19T02:54:35;45.53;37.19;57.35;;
74234;Laerm;62591;55.764;37.718;2023-10-19T02:57:04;45.91;38.27;59.08;;
74234;Laerm;62591;55.764;37.718;2023-10-19T02:59:36;44.55;37.55;59.50;;
74234;Laerm;62591;55.764;37.718;2023-10-19T03:02:04;44.40;36.88;59.65;;
74234;Laerm;62591;55.764;37.718;2023-10-19T03:04:44;46.86;36.45;60.09;;
74234;Laerm;62591;55.764;37.718;2023-10-19T03:07:14;46.96;37.65;58.53;;
74234;Laerm;62591;55.764;37.718;2023-10-19T03:09:47;46.23;38.02;58.70;;
74234;Laerm;62591;55.764;37.718;2023-10-19T03:12:21;46.64;38.95;58.82;;
74234;Laerm;62591;55.764;37.718;2023-10-19T03:14:52;48.55;38.19;58.53;;
74234;Laerm;62591;55.764;37.718;2023-10-19T03:17:21;46.01;38.56;58.97;;
74234;Laerm;62591;55.764;37.718;2023-10-19T03:19:52;47.00;39.21;59.44;;
74234;Laerm;62591;55.764;37.718;2023-10-19T03:22:19;47.87;40.64;62.51;;
74234;Laerm;62591;55.764;37.718;2023-10-19T03:24:50;46.95;39.83;57.79;;
74234;Laerm;62591;55.764;37.718;2023-10-19T03:27:29;47.02;39.56;58.71;;
74234;Laerm;62591;55.764;37.718;2023-10-19T03:29:57;47.00;39.66;58.61;;
74234;Laerm;62591;55.764;37.718;2023-10-19T03:32:27;49.03;40.71;62.21;;
74234;Laerm;62591;55.764;37.718;2023-10-19T03:35:00;47.14;38.77;58.17;;
74234;Laerm;62591;55.764;37.718;2023-10-19T03:37:32;48.40;40.42;60.15;;
74234;Laerm;62591;55.764;37.718;2023-10-19T03:40:06;47.43;40.23;58.09;;
74234;Laerm;62591;55.764;37.718;2023-10-19T03:42:39;47.37;38.74;60.87;;
74234;Laerm;62591;55.764;37.718;2023-10-19T03:45:09;50.05;39.94;60.11;;
74234;Laerm;62591;55.764;37.718;2023-10-19T03:47:40;49.51;40.03;58.11;;
74234;Laerm;62591;55.764;37.718;2023-10-19T03:50:13;46.79;39.40;57.57;;
74234;Laerm;62591;55.764;37.718;2023-10-19T03:52:47;48.55;40.13;59.41;;
74234;Laerm;62591;55.764;37.718;2023-10-19T03:55:18;49.20;38.64;58.85;;
74234;Laerm;62591;55.764;37.718;2023-10-19T03:57:47;48.96;39.57;58.02;;
74234;Laerm;62591;55.764;37.718;2023-10-19T04:00:18;49.24;41.91;58.71;;
74234;Laerm;62591;55.764;37.718;2023-10-19T04:02:52;48.02;40.93;60.98;;
74234;Laerm;62591;55.764;37.718;2023-10-19T04:05:23;48.25;39.80;60.31;;
74234;Laerm;62591;55.764;37.718;2023-10-19T04:07:54;49.73;41.34;60.30;;
74234;Laerm;62591;55.764;37.718;2023-10-19T04:10:27;48.63;39.71;58.41;;
74234;Laerm;62591;55.764;37.718;2023-10-19T04:13:06;49.81;42.13;60.10;;
74234;Laerm;62591;55.764;37.718;2023-10-19T04:15:41;47.09;39.88;59.94;;
74234;Laerm;62591;55.764;37.718;2023-10-19T04:18:10;50.27;43.74;60.38;;
74234;Laerm;62591;55.764;37.718;2023-10-19T04:20:39;47.78;39.22;59.47;;
74234;Laerm;62591;55.764;37.718;2023-10-19T04:23:23;53.25;43.70;67.71;;
74234;Laerm;62591;55.764;37.718;2023-10-19T04:25:57;50.99;43.05;68.06;;
74234;Laerm;62591;55.764;37.718;2023-10-19T04:28:26;49.14;41.38;59.22;;
74234;Laerm;62591;55.764;37.718;2023-10-19T04:31:06;49.45;41.33;67.81;;
74234;Laerm;62591;55.764;37.718;2023-10-19T04:33:40;51.59;43.41;62.26;;
74234;Laerm;62591;55.764;37.718;2023-10-19T04:36:14;47.49;40.64;59.47;;
74234;Laerm;62591;55.764;37.718;2023-10-19T04:38:43;50.85;40.16;59.51;;
74234;Laerm;62591;55.764;37.718;2023-10-19T04:41:14;49.73;40.43;60.05;;
74234;Laerm;62591;55.764;37.718;2023-10-19T04:43:43;48.28;40.60;59.51;;
74234;Laerm;62591;55.764;37.718;2023-10-19T04:46:17;50.26;41.59;60.09;;
74234;Laerm;62591;55.764;37.718;2023-10-19T04:48:49;50.52;40.94;59.79;;
74234;Laerm;62591;55.764;37.718;2023-10-19T04:51:25;50.61;45.17;60.77;;
74234;Laerm;62591;55.764;37.718;2023-10-19T04:53:54;50.70;42.45;62.89;;
74234;Laerm;62591;55.764;37.718;2023-10-19T04:56:24;49.58;43.12;68.00;;
74234;Laerm;62591;55.764;37.718;2023-10-19T04:58:53;50.99;43.72;60.22;;
74234;Laerm;62591;55.764;37.718;2023-10-19T05:01:22;50.57;41.33;64.84;;
74234;Laerm;62591;55.764;37.718;2023-10-19T05:03:51;50.69;43.67;58.31;;
74234;Laerm;62591;55.764;37.718;2023-10-19T05:06:22;50.78;44.36;67.57;;
74234;Laerm;62591;55.764;37.718;2023-10-19T05:09:06;50.40;43.24;60.69;;
74234;Laerm;62591;55.764;37.718;2023-10-19T05:11:43;51.55;42.14;63.67;;
74234;Laerm;62591;55.764;37.718;2023-10-19T05:14:13;52.43;41.76;71.60;;
74234;Laerm;62591;55.764;37.718;2023-10-19T05:16:42;51.93;42.90;70.36;;
74234;Laerm;62591;55.764;37.718;2023-10-19T05:19:11;50.37;43.48;58.37;;
74234;Laerm;62591;55.764;37.718;2023-10-19T05:21:40;51.27;43.71;59.38;;
74234;Laerm;62591;55.764;37.718;2023-10-19T05:24:14;51.88;42.92;60.37;;
74234;Laerm;62591;55.764;37.718;2023-10-19T05:26:45;48.49;42.21;54.83;;
74234;Laerm;62591;55.764;37.718;2023-10-19T05:29:15;51.44;42.52;59.81;;
74234;Laerm;62591;55.764;37.718;2023-10-19T05:31:43;51.75;43.35;63.57;;
74234;Laerm;62591;55.764;37.718;2023-10-19T05:34:15;51.08;42.20;60.02;;
74234;Laerm;62591;55.764;37.718;2023-10-19T05:36:51;50.58;42.46;58.87;;
74234;Laerm;62591;55.764;37.718;2023-10-19T05:39:22;53.78;46.36;74.92;;
74234;Laerm;62591;55.764;37.718;2023-10-19T05:41:56;51.71;45.49;71.88;;
74234;Laerm;62591;55.764;37.718;2023-10-19T05:44:29;51.53;44.70;62.15;;
74234;Laerm;62591;55.764;37.718;2023-10-19T05:46:58;50.48;43.16;56.97;;
74234;Laerm;62591;55.764;37.718;2023-10-19T05:49:27;50.62;42.05;60.86;;
74234;Laerm;62591;55.764;37.718;2023-10-19T05:51:57;51.05;43.21;60.06;;
74234;Laerm;62591;55.764;37.718;2023-10-19T05:54:26;50.21;41.96;59.91;;
74234;Laerm;62591;55.764;37.718;2023-10-19T05:56:56;50.02;42.24;59.56;;
74234;Laerm;62591;55.764;37.718;2023-10-19T05:59:25;49.47;42.03;64.71;;
74234;Laerm;62591;55.764;37.718;2023-10-19T06:01:56;51.16;43.92;61.01;;
74234;Laerm;62591;55.764;37.718;2023-10-19T06:04:25;51.53;45.24;60.00;;
74234;Laerm;62591;55.764;37.718;2023-10-19T06:06:53;51.29;43.66;63.42;;
74234;Laerm;62591;55.764;37.718;2023-10-19T06:09:23;53.66;44.21;62.92;;
74234;Laerm;62591;55.764;37.718;2023-10-19T06:11:58;50.70;42.61;60.08;;
74234;Laerm;62591;55.764;37.718;2023-10-19T06:14:27;52.33;43.86;67.65;;
74234;Laerm;62591;55.764;37.718;2023-10-19T06:16:57;49.46;43.35;58.39;;
74234;Laerm;62591;55.764;37.718;2023-10-19T06:19:26;50.90;43.34;57.94;;
74234;Laerm;62591;55.764;37.718;2023-10-19T06:21:55;50.44;43.88;68.41;;
74234;Laerm;62591;55.764;37.718;2023-10-19T06:24:24;51.64;44.95;59.82;;
74234;Laerm;62591;55.764;37.718;2023-10-19T06:26:52;52.87;44.29;65.63;;
74234;Laerm;62591;55.764;37.718;2023-10-19T06:29:22;52.02;44.46;74.50;;
74234;Laerm;62591;55.764;37.718;2023-10-19T06:31:54;50.91;46.22;57.64;;
74234;Laerm;62591;55.764;37.718;2023-10-19T06:34:23;50.54;44.13;60.28;;
74234;Laerm;62591;55.764;37.718;2023-10-19T06:36:54;50.61;43.27;62.15;;
74234;Laerm;62591;55.764;37.718;2023-10-19T06:39:23;52.87;46.72;61.04;;
74234;Laerm;62591;55.764;37.718;2023-10-19T06:41:52;53.71;48.02;67.80;;
74234;Laerm;62591;55.764;37.718;2023-10-19T06:44:22;53.67;49.81;60.12;;
74234;Laerm;62591;55.764;37.718;2023-10-19T06:46:50;55.39;48.24;61.98;;
74234;Laerm;62591;55.764;37.718;2023-10-19T06:49:19;54.55;49.22;63.49;;
74234;Laerm;62591;55.764;37.718;2023-10-19T06:51:48;50.45;42.34;60.66;;
74234;Laerm;62591;55.764;37.718;2023-10-19T06:54:18;52.25;43.16;59.04;;
74234;Laerm;62591;55.764;37.718;2023-10-19T06:56:46;54.02;48.56;65.10;;
74234;Laerm;62591;55.764;37.718;2023-10-19T06:59:15;55.17;50.08;61.65;;
74234;Laerm;62591;55.764;37.718;2023-10-19T07:01:45;55.35;49.99;65.22;;
74234;Laerm;62591;55.764;37.718;2023-10-19T07:04:14;54.99;49.81;60.68;;
74234;Laerm;62591;55.764;37.718;2023-10-19T07:06:43;54.11;45.58;59.65;;
74234;Laerm;62591;55.764;37.718;2023-10-19T07:09:14;51.21;44.93;57.92;;
74234;Laerm;62591;55.764;37.718;2023-10-19T07:11:43;49.63;44.20;62.34;;
74234;Laerm;62591;55.764;37.718;2023-10-19T07:14:12;51.51;46.20;61.84;;
74234;Laerm;62591;55.764;37.718;2023-10-19T07:16:41;51.30;45.85;59.77;;
74234;Laerm;62591;55.764;37.718;2023-10-19T07:19:11;50.75;45.52;59.24;;
74234;Laerm;62591;55.764;37.718;2023-10-19T07:21:41;54.16;46.55;72.18;;
74234;Laerm;62591;55.764;37.718;2023-10-19T07:24:11;53.76;47.18;63.48;;
74234;Laerm;62591;55.764;37.718;2023-10-19T07:26:39;55.60;46.91;76.93;;
74234;Laerm;62591;55.764;37.718;2023-10-19T07:29:18;52.51;47.00;66.41;;
74234;Laerm;62591;55.764;37.718;2023-10-19T07:31:47;51.66;45.99;58.32;;
74234;Laerm;62591;55.764;37.718;2023-10-19T07:34:17;53.70;48.36;59.00;;
74234;Laerm;62591;55.764;37.718;2023-10-19T07:36:52;54.38;49.28;67.85;;
74234;Laerm;62591;55.764;37.718;2023-10-19T07:39:21;53.65;46.99;60.47;;
74234;Laerm;62591;55.764;37.718;2023-10-19T07:41:50;52.68;46.87;64.10;;
74234;Laerm;62591;55.764;37.718;2023-10-19T07:44:18;52.50;46.75;72.42;;
74234;Laerm;62591;55.764;37.718;2023-10-19T07:46:47;52.95;46.25;61.14;;
74234;Laerm;62591;55.764;37.718;2023-10-19T07:49:17;51.71;47.16;57.85;;
74234;Laerm;62591;55.764;37.718;2023-10-19T07:51:47;51.34;46.25;57.70;;
74234;Laerm;62591;55.764;37.718;2023-10-19T07:54:17;51.83;46.38;58.64;;
74234;Laerm;62591;55.764;37.718;2023-10-19T07:56:45;50.67;45.93;62.99;;
74234;Laerm;62591;55.764;37.718;2023-10-19T07:59:18;52.31;44.74;64.39;;
74234;Laerm;62591;55.764;37.718;2023-10-19T08:01:46;49.58;43.10;58.74;;
74234;Laerm;62591;55.764;37.718;2023-10-19T08:04:16;50.99;46.11;59.76;;
74234;Laerm;62591;55.764;37.718;2023-10-19T08:06:46;52.56;47.00;61.05;;
74234;Laerm;62591;55.764;37.718;2023-10-19T08:09:15;51.30;45.15;62.18;;
74234;Laerm;62591;55.764;37.718;2023-10-19T08:11:50;51.60;44.99;59.35;;
74234;Laerm;62591;55.764;37.718;2023-10-19T08:14:22;50.61;44.11;59.98;;
74234;Laerm;62591;55.764;37.718;2023-10-19T08:16:52;50.87;44.92;60.11;;
74234;Laerm;62591;55.764;37.718;2023-10-19T08:19:22;51.07;44.01;59.73;;
74234;Laerm;62591;55.764;37.718;2023-10-19T08:21:51;51.07;43.64;63.18;;
74234;Laerm;62591;55.764;37.718;2023-10-19T08:24:21;50.80;43.65;64.02;;
74234;Laerm;62591;55.764;37.718;2023-10-19T08:26:50;50.44;43.34;62.16;;
74234;Laerm;62591;55.764;37.718;2023-10-19T08:29:19;50.41;43.38;59.04;;
74234;Laerm;62591;55.764;37.718;2023-10-19T08:31:48;52.07;43.49;60.57;;
74234;Laerm;62591;55.764;37.718;2023-10-19T08:34:17;50.78;42.70;62.41;;
74234;Laerm;62591;55.764;37.718;2023-10-19T08:36:49;50.39;43.81;59.82;;
74234;Laerm;62591;55.764;37.718;2023-10-19T08:39:19;49.06;42.84;60.11;;
74234;Laerm;62591;55.764;37.718;2023-10-19T08:41:48;50.44;43.63;62.86;;
74234;Laerm;62591;55.764;37.718;2023-10-19T08:44:20;50.24;44.56;61.20;;
74234;Laerm;62591;55.764;37.718;2023-10-19T08:46:49;50.60;43.45;60.15;;
74234;Laerm;62591;55.764;37.718;2023-10-19T08:49:19;52.04;44.59;63.11;;
74234;Laerm;62591;55.764;37.718;2023-10-19T08:51:51;50.88;44.49;58.89;;
74234;Laerm;62591;55.764;37.718;2023-10-19T08:54:22;52.29;45.25;70.83;;
74234;Laerm;62591;55.764;37.718;2023-10-19T08:56:51;49.57;42.42;56.02;;
74234;Laerm;62591;55.764;37.718;2023-10-19T08:59:22;49.51;40.96;56.43;;
74234;Laerm;62591;55.764;37.718;2023-10-19T09:01:51;48.44;40.99;59.61;;
74234;Laerm;62591;55.764;37.718;2023-10-19T09:04:19;48.44;40.58;55.93;;
74234;Laerm;62591;55.764;37.718;2023-10-19T09:06:53;49.58;42.06;66.95;;
74234;Laerm;62591;55.764;37.718;2023-10-19T09:09:22;52.33;44.35;60.52;;
74234;Laerm;62591;55.764;37.718;2023-10-19T09:11:52;52.59;45.24;66.58;;
74234;Laerm;62591;55.764;37.718;2023-10-19T09:14:32;52.55;46.12;61.98;;
74234;Laerm;62591;55.764;37.718;2023-10-19T09:17:02;49.48;43.89;56.31;;
74234;Laerm;62591;55.764;37.718;2023-10-19T09:19:37;48.35;41.10;56.88;;
74234;Laerm;62591;55.764;37.718;2023-10-19T09:22:08;49.39;42.74;60.15;;
74234;Laerm;62591;55.764;37.718;2023-10-19T09:24:44;50.94;43.90;58.97;;
74234;Laerm;62591;55.764;37.718;2023-10-19T09:27:16;49.10;41.27;59.05;;
74234;Laerm;62591;55.764;37.718;2023-10-19T09:29:46;49.08;42.10;58.94;;
74234;Laerm;62591;55.764;37.718;2023-10-19T09:32:16;51.00;43.37;64.03;;
74234;Laerm;62591;55.764;37.718;2023-10-19T09:34:47;50.77;43.43;62.32;;
74234;Laerm;62591;55.764;37.718;2023-10-19T09:37:17;50.57;41.12;65.39;;
74234;Laerm;62591;55.764;37.718;2023-10-19T09:39:46;47.54;42.21;56.66;;
74234;Laerm;62591;55.764;37.718;2023-10-19T09:42:16;50.55;42.06;62.90;;
74234;Laerm;62591;55.764;37.718;2023-10-19T09:44:49;49.41;41.43;64.87;;
74234;Laerm;62591;55.764;37.718;2023-10-19T09:47:26;49.12;43.39;60.68;;
74234;Laerm;62591;55.764;37.718;2023-10-19T09:50:01;48.98;41.40;63.55;;
74234;Laerm;62591;55.764;37.718;2023-10-19T09:52:34;50.24;43.72;61.98;;
74234;Laerm;62591;55.764;37.718;2023-10-19T09:55:10;49.89;44.21;59.16;;
74234;Laerm;62591;55.764;37.718;2023-10-19T09:57:46;52.63;41.65;64.67;;
74234;Laerm;62591;55.764;37.718;2023-10-19T10:00:17;49.79;43.30;62.21;;
74234;Laerm;62591;55.764;37.718;2023-10-19T10:02:54;49.42;43.26;59.22;;
74234;Laerm;62591;55.764;37.718;2023-10-19T10:05:44;49.10;41.53;58.62;;
74234;Laerm;62591;55.764;37.718;2023-10-19T10:08:31;50.34;41.42;58.52;;
74234;Laerm;62591;55.764;37.718;2023-10-19T10:11:13;51.35;42.78;60.52;;
74234;Laerm;62591;55.764;37.718;2023-10-19T10:13:44;49.86;43.61;59.87;;
74234;Laerm;62591;55.764;37.718;2023-10-19T10:16:14;50.91;44.46;59.58;;
74234;Laerm;62591;55.764;37.718;2023-10-19T10:18:43;51.04;46.04;59.95;;
74234;Laerm;62591;55.764;37.718;2023-10-19T10:21:17;49.79;43.92;59.72;;
74234;Laerm;62591;55.764;37.718;2023-10-19T10:23:52;51.82;47.53;60.63;;
74234;Laerm;62591;55.764;37.718;2023-10-19T10:26:23;53.11;48.40;63.28;;
74234;Laerm;62591;55.764;37.718;2023-10-19T10:29:10;52.90;46.96;60.67;;
74234;Laerm;62591;55.764;37.718;2023-10-19T10:31:43;52.57;45.18;64.00;;
74234;Laerm;62591;55.764;37.718;2023-10-19T10:34:43;53.05;45.78;61.92;;
74234;Laerm;62591;55.764;37.718;2023-10-19T10:37:12;52.33;46.52;60.88;;
74234;Laerm;62591;55.764;37.718;2023-10-19T10:39:46;53.22;46.18;61.86;;
74234;Laerm;62591;55.764;37.718;2023-10-19T10:42:16;52.68;45.79;66.50;;
74234;Laerm;62591;55.764;37.718;2023-10-19T10:44:48;51.72;45.60;61.77;;
74234;Laerm;62591;55.764;37.718;2023-10-19T10:47:20;51.62;43.56;60.53;;
74234;Laerm;62591;55.764;37.718;2023-10-19T10:49:51;50.73;44.02;59.15;;
74234;Laerm;62591;55.764;37.718;2023-10-19T10:52:25;50.29;43.76;58.20;;
74234;Laerm;62591;55.764;37.718;2023-10-19T10:54:55;50.97;43.40;59.40;;
74234;Laerm;62591;55.764;37.718;2023-10-19T10:57:30;51.69;43.58;60.35;;
74234;Laerm;62591;55.764;37.718;2023-10-19T11:00:04;50.68;43.61;61.39;;
74234;Laerm;62591;55.764;37.718;2023-10-19T11:02:35;49.28;42.35;60.45;;
74234;Laerm;62591;55.764;37.718;2023-10-19T11:05:07;51.07;42.51;59.48;;
74234;Laerm;62591;55.764;37.718;2023-10-19T11:07:41;50.82;44.22;61.53;;
74234;Laerm;62591;55.764;37.718;2023-10-19T11:10:11;49.35;44.10;62.43;;
74234;Laerm;62591;55.764;37.718;2023-10-19T11:12:40;50.22;42.93;59.71;;
74234;Laerm;62591;55.764;37.718;2023-10-19T11:15:09;47.92;41.18;59.47;;
74234;Laerm;62591;55.764;37.718;2023-10-19T11:17:44;49.53;43.72;61.84;;
74234;Laerm;62591;55.764;37.718;2023-10-19T11:20:21;53.38;45.83;62.98;;
74234;Laerm;62591;55.764;37.718;2023-10-19T11:22:52;54.18;46.75;63.31;;
74234;Laerm;62591;55.764;37.718;2023-10-19T11:25:25;52.12;44.79;63.01;;
74234;Laerm;62591;55.764;37.718;2023-10-19T11:27:55;52.03;42.76;65.09;;
74234;Laerm;62591;55.764;37.718;2023-10-19T11:30:25;52.54;47.24;57.86;;
74234;Laerm;62591;55.764;37.718;2023-10-19T11:32:58;49.98;42.85;58.98;;
74234;Laerm;62591;55.764;37.718;2023-10-19T11:35:29;49.53;42.77;65.97;;
74234;Laerm;62591;55.764;37.718;2023-10-19T11:37:59;51.12;43.11;62.04;;
74234;Laerm;62591;55.764;37.718;2023-10-19T11:40:31;48.57;41.71;59.23;;
74234;Laerm;62591;55.764;37.718;2023-10-19T11:43:00;48.68;42.17;57.75;;
74234;Laerm;62591;55.764;37.718;2023-10-19T11:45:29;50.96;43.50;59.18;;
74234;Laerm;62591;55.764;37.718;2023-10-19T11:47:58;49.72;43.60;61.36;;
74234;Laerm;62591;55.764;37.718;2023-10-19T11:50:28;51.89;44.53;69.96;;
74234;Laerm;62591;55.764;37.718;2023-10-19T11:52:56;50.26;43.66;60.68;;
74234;Laerm;62591;55.764;37.718;2023-10-19T11:55:25;50.83;44.42;59.75;;
74234;Laerm;62591;55.764;37.718;2023-10-19T11:57:55;50.07;44.51;61.42;;
74234;Laerm;62591;55.764;37.718;2023-10-19T12:00:26;50.60;43.88;61.29;;
74234;Laerm;62591;55.764;37.718;2023-10-19T12:03:01;49.93;41.64;59.55;;
74234;Laerm;62591;55.764;37.718;2023-10-19T12:05:31;49.76;42.06;74.75;;
74234;Laerm;62591;55.764;37.718;2023-10-19T12:08:04;48.89;42.73;59.26;;
74234;Laerm;62591;55.764;37.718;2023-10-19T12:10:34;49.10;42.43;59.07;;
74234;Laerm;62591;55.764;37.718;2023-10-19T12:13:07;49.97;44.07;60.15;;
74234;Laerm;62591;55.764;37.718;2023-10-19T12:15:37;50.68;42.07;65.31;;
74234;Laerm;62591;55.764;37.718;2023-10-19T12:18:05;50.16;42.35;59.24;;
74234;Laerm;62591;55.764;37.718;2023-10-19T12:20:36;52.89;43.75;64.35;;
74234;Laerm;62591;55.764;37.718;2023-10-19T12:23:05;53.29;46.79;59.81;;
74234;Laerm;62591;55.764;37.718;2023-10-19T12:25:33;54.50;49.64;60.54;;
74234;Laerm;62591;55.764;37.718;2023-10-19T12:28:24;57.84;53.72;63.87;;
74234;Laerm;62591;55.764;37.718;2023-10-19T12:30:53;57.79;51.91;63.49;;
74234;Laerm;62591;55.764;37.718;2023-10-19T12:33:23;55.36;50.31;64.42;;
74234;Laerm;62591;55.764;37.718;2023-10-19T12:35:53;53.79;48.44;61.04;;
74234;Laerm;62591;55.764;37.718;2023-10-19T12:38:24;54.83;49.66;61.60;;
74234;Laerm;62591;55.764;37.718;2023-10-19T12:40:53;54.81;50.69;64.25;;
74234;Laerm;62591;55.764;37.718;2023-10-19T12:43:24;55.17;51.06;63.56;;
74234;Laerm;62591;55.764;37.718;2023-10-19T12:45:53;54.87;49.98;62.01;;
74234;Laerm;62591;55.764;37.718;2023-10-19T12:48:22;54.27;49.05;73.97;;
74234;Laerm;62591;55.764;37.718;2023-10-19T12:50:54;54.05;48.90;62.08;;
74234;Laerm;62591;55.764;37.718;2023-10-19T12:53:24;53.88;49.14;62.27;;
74234;Laerm;62591;55.764;37.718;2023-10-19T12:55:53;54.20;48.69;61.94;;
74234;Laerm;62591;55.764;37.718;2023-10-19T12:58:21;53.24;48.72;61.93;;
74234;Laerm;62591;55.764;37.718;2023-10-19T13:00:52;53.56;49.30;67.46;;
74234;Laerm;62591;55.764;37.718;2023-10-19T13:03:21;52.96;48.09;64.64;;
74234;Laerm;62591;55.764;37.718;2023-10-19T13:05:52;52.70;48.22;63.20;;
74234;Laerm;62591;55.764;37.718;2023-10-19T13:08:20;53.30;48.25;61.25;;
74234;Laerm;62591;55.764;37.718;2023-10-19T13:10:58;55.11;49.96;66.60;;
74234;Laerm;62591;55.764;37.718;2023-10-19T13:13:42;53.70;48.41;67.14;;
74234;Laerm;62591;55.764;37.718;2023-10-19T13:16:12;52.66;47.99;59.90;;
74234;Laerm;62591;55.764;37.718;2023-10-19T13:18:41;52.39;46.66;64.81;;
74234;Laerm;62591;55.764;37.718;2023-10-19T13:21:11;51.97;46.09;62.85;;
74234;Laerm;62591;55.764;37.718;2023-10-19T13:23:45;51.60;46.43;61.84;;
74234;Laerm;62591;55.764;37.718;2023-10-19T13:26:16;51.15;46.22;60.16;;
74234;Laerm;62591;55.764;37.718;2023-10-19T13:28:46;51.14;45.31;64.30;;
74234;Laerm;62591;55.764;37.718;2023-10-19T13:31:17;52.81;46.99;59.35;;
74234;Laerm;62591;55.764;37.718;2023-10-19T13:33:46;51.62;47.04;59.67;;
74234;Laerm;62591;55.764;37.718;2023-10-19T13:36:15;51.52;46.58;68.32;;
74234;Laerm;62591;55.764;37.718;2023-10-19T13:38:44;53.69;46.55;77.25;;
74234;Laerm;62591;55.764;37.718;2023-10-19T13:41:13;52.95;47.91;60.42;;
74234;Laerm;62591;55.764;37.718;2023-10-19T13:43:44;50.55;46.48;59.58;;
74234;Laerm;62591;55.764;37.718;2023-10-19T13:46:14;52.15;44.55;68.37;;
74234;Laerm;62591;55.764;37.718;2023-10-19T13:48:44;53.18;42.26;69.52;;
74234;Laerm;62591;55.764;37.718;2023-10-19T13:51:16;50.90;43.11;61.87;;
74234;Laerm;62591;55.764;37.718;2023-10-19T13:53:46;51.74;44.39;59.81;;
74234;Laerm;62591;55.764;37.718;2023-10-19T13:56:17;51.79;45.61;62.12;;